Time;durP1;ratioP1;P1;durP2;ratioP2;P2;SDS_P1;SDS_P2;PMS_P1;PMS_P2;Temp;Humidity;BMP_temperature;BMP_pressure;BME280_temperature;BME280_humidity;BME280_pressure;Samples;Min_cycle;Max_cycle;Signal;HPM_P1;HPM_P2
2022/08/01 00:01:48;;;;;;;4.00;2.90;;;21.40;57.50;;;;;;5018914;28;20196;-45
2022/08/01 00:04:14;;;;;;;3.57;3.27;;;21.40;57.80;;;;;;5018333;28;20484;-45
2022/08/01 00:06:39;;;;;;;4.40;3.20;;;21.40;58.00;;;;;;5018076;28;20284;-47
2022/08/01 00:09:05;;;;;;;3.50;3.20;;;21.40;58.20;;;;;;5017246;28;20546;-47
2022/08/01 00:11:31;;;;;;;2.70;2.50;;;21.30;58.20;;;;;;5018565;28;20197;-48
2022/08/01 00:13:56;;;;;;;4.00;3.63;;;21.30;58.50;;;;;;5018091;28;20199;-49
2022/08/01 00:16:25;;;;;;;5.03;3.37;;;21.20;58.70;;;;;;5018814;28;20184;-48
2022/08/01 00:18:51;;;;;;;3.43;3.13;;;21.10;59.00;;;;;;5018161;28;20557;-47
2022/08/01 00:21:17;;;;;;;3.40;3.10;;;21.10;59.30;;;;;;5018345;28;20419;-49
2022/08/01 00:23:45;;;;;;;3.17;2.87;;;21.10;59.60;;;;;;5017463;28;20428;-46
2022/08/01 00:26:14;;;;;;;3.33;3.03;;;21.10;59.70;;;;;;5017462;28;20428;-50
2022/08/01 00:28:40;;;;;;;3.37;3.00;;;21.10;59.80;;;;;;5018251;28;20444;-50
2022/08/01 00:31:05;;;;;;;3.37;3.07;;;21.10;60.00;;;;;;5018836;28;20423;-47
2022/08/01 00:33:31;;;;;;;3.40;3.10;;;21.10;60.10;;;;;;5017632;28;20471;-47
2022/08/01 00:35:58;;;;;;;3.80;2.90;;;21.10;60.60;;;;;;5018151;28;20221;-47
2022/08/01 00:38:23;;;;;;;3.17;2.87;;;21.10;60.50;;;;;;5017651;28;20420;-47
2022/08/01 00:40:49;;;;;;;3.87;3.47;;;21.10;60.40;;;;;;5018071;28;20194;-46
2022/08/01 00:43:15;;;;;;;3.63;2.80;;;21.10;60.90;;;;;;5016934;28;20477;-49
2022/08/01 00:45:41;;;;;;;2.90;2.70;;;21.10;61.20;;;;;;5017701;28;20270;-49
2022/08/01 00:48:07;;;;;;;3.27;3.07;;;21.10;61.40;;;;;;5017946;28;20190;-48
2022/08/01 00:50:33;;;;;;;3.30;2.90;;;21.10;61.40;;;;;;5018137;28;20524;-46
2022/08/01 00:52:59;;;;;;;3.70;3.33;;;21.10;62.20;;;;;;5017707;28;20223;-44
2022/08/01 00:55:27;;;;;;;5.40;4.03;;;21.10;62.30;;;;;;5016523;28;20436;-47
2022/08/01 00:57:52;;;;;;;3.40;3.03;;;21.00;62.40;;;;;;5017990;28;20420;-47
2022/08/01 01:00:19;;;;;;;3.13;2.93;;;21.00;62.60;;;;;;5017151;28;20687;-46
2022/08/01 01:02:44;;;;;;;3.50;3.20;;;21.00;63.20;;;;;;5017658;28;20546;-49
2022/08/01 01:05:10;;;;;;;3.50;3.20;;;20.90;63.30;;;;;;5019193;28;20739;-45
2022/08/01 01:08:01;;;;;;;4.13;3.73;;;20.90;63.80;;;;;;5022037;28;20538;-46
2022/08/01 01:10:50;;;;;;;3.57;3.27;;;20.90;64.00;;;;;;5021965;28;20191;-47
2022/08/01 01:13:37;;;;;;;4.70;3.33;;;20.80;64.50;;;;;;5021213;28;20743;-48
2022/08/01 01:16:10;;;;;;;3.47;3.17;;;20.80;64.80;;;;;;5021853;28;20884;-46
2022/08/01 01:18:39;;;;;;;3.57;3.17;;;20.80;65.60;;;;;;5021149;28;20445;-46
2022/08/01 01:21:14;;;;;;;3.80;3.50;;;20.70;65.30;;;;;;5021424;28;20698;-46
2022/08/01 01:24:13;;;;;;;3.90;3.50;;;20.70;65.90;;;;;;5021574;28;20444;-46
2022/08/01 01:27:06;;;;;;;3.73;3.43;;;20.70;66.20;;;;;;5021573;28;20431;-46
2022/08/01 01:29:33;;;;;;;4.70;3.67;;;20.70;66.10;;;;;;5021530;28;20520;-45
2022/08/01 01:32:07;;;;;;;4.10;3.53;;;20.60;66.70;;;;;;5021072;28;20881;-47
2022/08/01 01:34:36;;;;;;;3.73;3.37;;;20.70;67.30;;;;;;5020318;28;20767;-46
2022/08/01 01:37:04;;;;;;;3.77;3.47;;;20.70;67.60;;;;;;5021177;28;20822;-46
2022/08/01 01:39:31;;;;;;;5.17;3.80;;;20.70;67.80;;;;;;5020355;28;20407;-48
2022/08/01 01:41:57;;;;;;;4.10;3.70;;;20.70;68.10;;;;;;5020343;28;20493;-47
2022/08/01 01:44:24;;;;;;;3.87;3.50;;;20.60;68.20;;;;;;5021645;28;20909;-46
2022/08/01 01:46:51;;;;;;;3.90;3.60;;;20.60;68.40;;;;;;5021281;28;20410;-45
2022/08/01 01:49:20;;;;;;;3.97;3.67;;;20.60;68.80;;;;;;5020847;28;20420;-46
2022/08/01 01:51:47;;;;;;;3.70;3.40;;;20.60;69.30;;;;;;5020587;28;20421;-48
2022/08/01 01:54:12;;;;;;;3.90;3.60;;;20.60;69.50;;;;;;5021476;28;20498;-47
2022/08/01 01:56:48;;;;;;;3.60;3.30;;;20.60;69.80;;;;;;5020726;28;20468;-46
2022/08/01 02:02:38;;;;;;;3.90;3.57;;;20.60;70.50;;;;;;5018519;28;20511;-46
2022/08/01 02:05:05;;;;;;;4.80;3.70;;;20.50;70.80;;;;;;5002214;28;20435;-46
2022/08/01 02:07:31;;;;;;;3.80;3.50;;;20.60;71.30;;;;;;5017882;28;20416;-46
2022/08/01 02:09:58;;;;;;;4.13;3.83;;;20.50;71.30;;;;;;5002177;28;20502;-46
2022/08/01 02:12:24;;;;;;;4.20;3.90;;;20.50;71.50;;;;;;5001608;28;20681;-47
2022/08/01 02:14:53;;;;;;;5.07;3.63;;;20.60;71.80;;;;;;5018467;28;20518;-48
2022/08/01 02:17:19;;;;;;;5.97;3.50;;;20.60;72.70;;;;;;5017610;28;20180;-47
2022/08/01 02:19:45;;;;;;;3.70;3.40;;;20.50;72.20;;;;;;5002243;28;20445;-47
2022/08/01 02:22:16;;;;;;;4.63;4.20;;;20.60;72.70;;;;;;5018375;28;20417;-46
2022/08/01 02:24:55;;;;;;;4.00;3.70;;;20.60;72.80;;;;;;5002602;28;20418;-46
2022/08/01 02:27:40;;;;;;;5.27;4.20;;;20.50;73.00;;;;;;5002222;28;20430;-49
2022/08/01 02:30:08;;;;;;;3.83;3.43;;;20.50;73.70;;;;;;5002733;28;20417;-46
2022/08/01 02:32:43;;;;;;;4.70;4.30;;;20.50;73.90;;;;;;5005816;28;20504;-46
2022/08/01 02:35:17;;;;;;;7.10;3.83;;;20.50;74.40;;;;;;5020138;28;20518;-47
2022/08/01 02:37:43;;;;;;;4.50;4.10;;;20.50;74.70;;;;;;5018823;28;20441;-46
2022/08/01 02:40:10;;;;;;;4.10;3.73;;;20.50;74.80;;;;;;5019225;28;20420;-46
2022/08/01 02:42:37;;;;;;;4.50;3.50;;;20.60;75.60;;;;;;5020175;28;20418;-48
2022/08/01 02:45:04;;;;;;;4.50;4.10;;;20.60;75.60;;;;;;5019002;28;20448;-53
2022/08/01 02:47:30;;;;;;;4.33;3.93;;;20.60;75.90;;;;;;5019951;28;20695;-46
2022/08/01 02:49:57;;;;;;;4.30;3.97;;;20.60;76.80;;;;;;5019926;28;20418;-46
2022/08/01 02:52:24;;;;;;;4.40;4.00;;;20.50;77.40;;;;;;5019263;28;20238;-47
2022/08/01 02:54:52;;;;;;;3.70;3.40;;;20.50;77.70;;;;;;5018416;28;20431;-46
2022/08/01 02:57:18;;;;;;;4.07;3.77;;;20.50;77.90;;;;;;5017546;28;20450;-47
2022/08/01 02:59:45;;;;;;;4.00;3.60;;;20.50;78.40;;;;;;5018071;28;20439;-47
2022/08/01 03:02:11;;;;;;;4.40;4.00;;;20.50;78.80;;;;;;5018327;28;20446;-46
2022/08/01 03:04:38;;;;;;;4.10;3.70;;;20.50;79.40;;;;;;5015939;28;20446;-45
2022/08/01 03:07:06;;;;;;;3.70;3.40;;;20.50;79.50;;;;;;5016227;28;20488;-46
2022/08/01 03:09:35;;;;;;;3.63;3.33;;;20.40;80.30;;;;;;5017087;28;20577;-46
2022/08/01 03:12:03;;;;;;;4.27;3.87;;;20.40;81.00;;;;;;5017537;28;20425;-48
2022/08/01 03:14:30;;;;;;;4.10;3.80;;;20.40;81.90;;;;;;5016644;28;20473;-48
2022/08/01 03:16:56;;;;;;;3.90;3.53;;;20.30;82.60;;;;;;4999333;28;20476;-44
2022/08/01 03:19:24;;;;;;;4.23;3.47;;;20.30;82.90;;;;;;5016170;28;20437;-46
2022/08/01 03:21:50;;;;;;;4.10;3.80;;;20.20;83.20;;;;;;5016427;28;20472;-46
2022/08/01 03:24:16;;;;;;;4.40;3.90;;;20.20;83.50;;;;;;5015075;28;20487;-47
2022/08/01 03:26:43;;;;;;;3.80;3.50;;;20.30;83.90;;;;;;5015065;28;20529;-45
2022/08/01 03:29:21;;;;;;;4.17;3.77;;;20.30;83.50;;;;;;5017245;28;20444;-45
2022/08/01 03:31:48;;;;;;;3.83;3.50;;;20.30;83.60;;;;;;5016910;28;20484;-47
2022/08/01 03:34:14;;;;;;;3.67;3.37;;;20.40;83.60;;;;;;5016421;28;20520;-46
2022/08/01 03:37:03;;;;;;;3.53;3.23;;;20.40;83.70;;;;;;5016846;28;20445;-47
2022/08/01 03:39:33;;;;;;;3.20;2.90;;;20.50;83.70;;;;;;5017223;28;20243;-47
2022/08/01 03:42:05;;;;;;;3.83;3.53;;;20.50;83.90;;;;;;5016995;28;20413;-47
2022/08/01 03:44:34;;;;;;;4.20;3.80;;;20.50;84.00;;;;;;5017298;28;20715;-47
2022/08/01 03:47:02;;;;;;;5.80;3.67;;;20.50;83.90;;;;;;5016907;28;20416;-48
2022/08/01 03:49:30;;;;;;;5.40;4.20;;;20.50;83.90;;;;;;5015330;28;20513;-47
2022/08/01 03:51:57;;;;;;;4.30;3.70;;;20.50;84.00;;;;;;5016796;28;20426;-47
2022/08/01 03:54:25;;;;;;;3.70;3.40;;;20.50;84.00;;;;;;5018618;28;20747;-47
2022/08/01 03:56:52;;;;;;;4.00;3.53;;;20.50;84.00;;;;;;5017558;28;20445;-46
2022/08/01 03:59:18;;;;;;;3.70;3.27;;;20.50;84.10;;;;;;5017310;28;20573;-49
2022/08/01 04:01:45;;;;;;;3.90;3.60;;;20.50;84.20;;;;;;5017257;28;20485;-48
2022/08/01 04:04:12;;;;;;;4.50;3.87;;;20.50;84.20;;;;;;5016974;28;20734;-49
2022/08/01 04:06:38;;;;;;;4.67;4.27;;;20.50;84.30;;;;;;5017352;28;20422;-46
2022/08/01 04:09:04;;;;;;;3.47;3.17;;;20.50;84.20;;;;;;5016675;28;20532;-48
2022/08/01 04:11:30;;;;;;;4.27;3.93;;;20.50;84.40;;;;;;5016356;28;20508;-47
2022/08/01 04:13:56;;;;;;;6.93;4.07;;;20.50;84.60;;;;;;5016488;28;20277;-47
2022/08/01 04:16:22;;;;;;;3.90;3.60;;;20.50;84.60;;;;;;5016241;28;20177;-48
2022/08/01 04:18:48;;;;;;;3.53;3.10;;;20.50;84.60;;;;;;5016259;28;20173;-46
2022/08/01 04:21:17;;;;;;;3.93;3.53;;;20.50;84.80;;;;;;5016431;28;20476;-47
2022/08/01 04:23:44;;;;;;;4.43;4.07;;;20.50;84.90;;;;;;5016784;28;20426;-48
2022/08/01 04:26:11;;;;;;;4.07;3.67;;;20.50;85.10;;;;;;5013889;28;20472;-49
2022/08/01 04:28:37;;;;;;;4.13;3.50;;;20.50;85.20;;;;;;5013988;28;20426;-46
2022/08/01 04:31:05;;;;;;;3.90;3.50;;;20.50;85.30;;;;;;5014696;28;20430;-50
2022/08/01 04:33:31;;;;;;;3.70;3.40;;;20.50;85.50;;;;;;5015298;28;20550;-52
2022/08/01 04:35:58;;;;;;;3.70;3.40;;;20.50;85.60;;;;;;5015212;28;20693;-54
2022/08/01 04:38:29;;;;;;;4.10;3.70;;;20.60;85.60;;;;;;5014676;28;20439;-52
2022/08/01 04:40:55;;;;;;;4.37;3.90;;;20.60;85.60;;;;;;5014571;28;20424;-52
2022/08/01 04:43:21;;;;;;;4.07;3.77;;;20.70;85.60;;;;;;5015024;28;20433;-49
2022/08/01 04:45:47;;;;;;;3.80;3.40;;;20.80;85.60;;;;;;5014100;28;20360;-51
2022/08/01 04:48:15;;;;;;;4.07;3.77;;;20.80;85.50;;;;;;5013793;28;20495;-55
2022/08/01 04:50:41;;;;;;;4.07;3.70;;;20.80;85.40;;;;;;4997123;28;20881;-50
2022/08/01 04:53:13;;;;;;;4.00;3.53;;;20.80;85.20;;;;;;5014381;28;20575;-51
2022/08/01 04:55:38;;;;;;;4.33;3.90;;;20.90;85.40;;;;;;5015619;28;20432;-54
2022/08/01 04:58:04;;;;;;;4.63;4.23;;;20.90;85.40;;;;;;5014002;28;20508;-50
2022/08/01 05:00:30;;;;;;;4.37;4.00;;;20.90;85.40;;;;;;5015761;28;20603;-52
2022/08/01 05:02:56;;;;;;;4.53;3.67;;;20.90;85.60;;;;;;5016782;28;20840;-49
2022/08/01 05:05:21;;;;;;;3.90;3.50;;;21.00;85.70;;;;;;5016665;28;20210;-50
2022/08/01 05:07:47;;;;;;;3.60;3.30;;;21.00;85.90;;;;;;5016644;28;20185;-53
2022/08/01 05:10:13;;;;;;;4.10;3.80;;;21.00;85.90;;;;;;5016298;28;20185;-51
2022/08/01 05:12:38;;;;;;;4.27;3.87;;;21.00;86.00;;;;;;5016483;28;20749;-53
2022/08/01 05:15:06;;;;;;;5.07;4.60;;;21.00;86.10;;;;;;5014972;28;20179;-50
2022/08/01 05:17:31;;;;;;;4.70;4.30;;;21.10;86.30;;;;;;5015017;28;20580;-54
2022/08/01 05:19:57;;;;;;;5.10;4.60;;;21.10;86.20;;;;;;5015299;28;20713;-53
2022/08/01 05:22:25;;;;;;;4.30;3.80;;;21.10;85.90;;;;;;5014851;28;20179;-53
2022/08/01 05:24:51;;;;;;;4.00;3.70;;;21.20;85.70;;;;;;5014253;28;20564;-53
2022/08/01 05:27:16;;;;;;;4.53;4.07;;;21.20;85.70;;;;;;5012023;28;20788;-50
2022/08/01 05:29:42;;;;;;;6.80;4.47;;;21.30;86.00;;;;;;5014960;28;20272;-52
2022/08/01 05:32:08;;;;;;;4.37;3.97;;;21.30;86.00;;;;;;5014282;28;20500;-52
2022/08/01 05:34:33;;;;;;;4.53;4.13;;;21.30;85.70;;;;;;5015393;28;20506;-51
2022/08/01 05:36:59;;;;;;;3.40;3.10;;;21.30;85.50;;;;;;5013231;28;20172;-51
2022/08/01 05:39:25;;;;;;;4.07;3.77;;;21.40;85.60;;;;;;5014746;28;20433;-51
2022/08/01 05:41:51;;;;;;;4.50;4.10;;;21.40;86.30;;;;;;5014032;28;20173;-51
2022/08/01 05:44:16;;;;;;;4.43;4.03;;;21.40;86.50;;;;;;5013309;28;20407;-54
2022/08/01 05:46:42;;;;;;;3.67;3.37;;;21.40;86.00;;;;;;5014991;28;20556;-52
2022/08/01 05:49:08;;;;;;;4.00;3.70;;;21.50;86.30;;;;;;5014951;28;20196;-53
2022/08/01 05:51:33;;;;;;;4.37;3.80;;;21.60;86.20;;;;;;5018477;28;20228;-53
2022/08/01 05:53:59;;;;;;;4.60;3.20;;;21.70;85.70;;;;;;5019094;28;20224;-53
2022/08/01 05:56:25;;;;;;;3.93;3.63;;;21.80;86.20;;;;;;5017038;28;20244;-58
2022/08/01 05:58:50;;;;;;;3.70;3.40;;;21.90;85.50;;;;;;5017227;28;20522;-55
2022/08/01 06:01:17;;;;;;;3.53;3.23;;;22.00;85.00;;;;;;5018300;28;20188;-53
2022/08/01 06:03:43;;;;;;;3.60;3.30;;;22.10;84.50;;;;;;5017264;28;20281;-53
2022/08/01 06:06:08;;;;;;;3.40;3.10;;;22.30;84.20;;;;;;5016590;28;20505;-51
2022/08/01 06:08:35;;;;;;;3.10;2.90;;;22.30;85.00;;;;;;5015311;28;20574;-50
2022/08/01 06:11:02;;;;;;;3.87;3.30;;;22.20;84.80;;;;;;5016178;28;20167;-52
2022/08/01 06:13:28;;;;;;;3.33;3.03;;;22.30;84.90;;;;;;5013933;28;20470;-52
2022/08/01 06:15:54;;;;;;;3.80;3.50;;;22.20;85.00;;;;;;5015480;28;20435;-53
2022/08/01 06:18:20;;;;;;;6.30;3.40;;;22.20;85.10;;;;;;5015436;28;20174;-52
2022/08/01 06:20:46;;;;;;;3.20;3.00;;;22.10;85.00;;;;;;5014410;28;20167;-51
2022/08/01 06:23:13;;;;;;;3.30;2.50;;;22.20;84.60;;;;;;5015579;28;20486;-50
2022/08/01 06:25:39;;;;;;;4.93;3.40;;;22.40;84.30;;;;;;5014950;28;20315;-50
2022/08/01 06:28:05;;;;;;;3.90;3.50;;;22.40;83.60;;;;;;5015559;28;20475;-52
2022/08/01 06:30:30;;;;;;;3.77;3.40;;;22.50;83.80;;;;;;5015043;28;20423;-51
2022/08/01 06:32:58;;;;;;;4.80;3.47;;;22.60;83.50;;;;;;5016704;28;20265;-52
2022/08/01 06:35:24;;;;;;;3.33;2.93;;;22.60;83.40;;;;;;5016040;28;20277;-52
2022/08/01 06:37:49;;;;;;;3.23;2.53;;;22.70;83.30;;;;;;5016138;28;20521;-51
2022/08/01 06:40:15;;;;;;;3.50;3.20;;;22.70;82.90;;;;;;5017056;28;20543;-52
2022/08/01 06:42:41;;;;;;;2.93;2.70;;;22.80;82.70;;;;;;5017204;28;20182;-54
2022/08/01 06:45:11;;;;;;;3.87;3.13;;;22.80;82.40;;;;;;5018682;28;20430;-51
2022/08/01 06:47:38;;;;;;;4.03;2.67;;;23.00;82.20;;;;;;5017732;28;20283;-50
2022/08/01 06:50:08;;;;;;;2.83;2.60;;;23.10;81.40;;;;;;5017881;28;20429;-55
2022/08/01 06:52:34;;;;;;;2.80;2.40;;;23.10;80.70;;;;;;5016859;28;20425;-53
2022/08/01 06:55:00;;;;;;;4.43;3.50;;;23.30;80.50;;;;;;5018081;28;20752;-52
2022/08/01 06:57:25;;;;;;;2.97;2.70;;;23.40;80.70;;;;;;5017935;28;20504;-51
2022/08/01 06:59:51;;;;;;;3.10;2.67;;;23.40;80.50;;;;;;5017036;28;20178;-53
2022/08/01 07:02:17;;;;;;;3.43;3.10;;;23.50;80.20;;;;;;5015863;28;20518;-53
2022/08/01 07:04:43;;;;;;;2.80;2.57;;;23.60;79.80;;;;;;5018250;28;20250;-52
2022/08/01 07:07:08;;;;;;;2.63;2.43;;;23.60;80.20;;;;;;5016653;28;20174;-63
2022/08/01 07:09:34;;;;;;;2.63;2.23;;;23.80;79.90;;;;;;5018306;28;20362;-53
2022/08/01 07:12:00;;;;;;;3.10;2.10;;;23.80;79.60;;;;;;4996533;28;20190;-53
2022/08/01 07:14:26;;;;;;;2.60;2.40;;;23.90;79.00;;;;;;4994963;28;20469;-56
2022/08/01 07:16:51;;;;;;;2.83;2.60;;;24.00;79.20;;;;;;4996271;28;20652;-53
2022/08/01 07:19:18;;;;;;;3.67;2.47;;;24.00;78.80;;;;;;4996034;28;20177;-51
2022/08/01 07:21:44;;;;;;;2.87;2.37;;;23.90;78.90;;;;;;4995192;28;20206;-54
2022/08/01 07:24:15;;;;;;;2.90;2.70;;;23.90;79.00;;;;;;4994549;28;20799;-50
2022/08/01 07:26:43;;;;;;;3.20;2.90;;;24.10;79.00;;;;;;4995641;28;20489;-52
2022/08/01 07:29:08;;;;;;;2.63;2.37;;;24.10;78.30;;;;;;4995790;28;20445;-49
2022/08/01 07:31:34;;;;;;;3.67;2.40;;;24.20;77.90;;;;;;4996379;28;20462;-52
2022/08/01 07:34:00;;;;;;;3.87;2.23;;;24.40;77.70;;;;;;4995327;28;20239;-51
2022/08/01 07:36:25;;;;;;;2.40;2.20;;;24.70;76.50;;;;;;4995511;28;20447;-55
2022/08/01 07:38:51;;;;;;;2.73;2.53;;;25.10;75.90;;;;;;4995316;28;20295;-53
2022/08/01 07:41:16;;;;;;;4.17;2.43;;;25.40;74.70;;;;;;4997102;28;20169;-54
2022/08/01 07:43:42;;;;;;;2.60;2.40;;;25.70;73.40;;;;;;4997103;28;20591;-52
2022/08/01 07:46:08;;;;;;;2.90;2.60;;;25.80;73.40;;;;;;4995777;28;20423;-54
2022/08/01 07:48:33;;;;;;;3.03;2.77;;;26.00;72.80;;;;;;4994251;28;20265;-52
2022/08/01 07:50:59;;;;;;;3.40;3.10;;;26.20;71.30;;;;;;4994270;28;20261;-52
2022/08/01 07:53:25;;;;;;;3.80;3.10;;;26.20;71.20;;;;;;4994346;28;20224;-52
2022/08/01 07:55:51;;;;;;;3.10;2.80;;;26.30;71.70;;;;;;4995915;28;20162;-51
2022/08/01 07:58:17;;;;;;;3.13;2.73;;;26.60;71.20;;;;;;4995614;28;20718;-53
2022/08/01 08:00:43;;;;;;;3.83;3.37;;;26.60;69.70;;;;;;4996960;28;20510;-54
2022/08/01 08:03:08;;;;;;;2.67;2.47;;;26.70;68.90;;;;;;4995730;28;20188;-48
2022/08/01 08:05:36;;;;;;;3.47;3.17;;;26.70;69.00;;;;;;4996091;28;20455;-40
2022/08/01 08:08:06;;;;;;;4.30;2.90;;;26.50;69.20;;;;;;4997421;28;20564;-40
2022/08/01 08:10:32;;;;;;;3.53;3.23;;;26.60;68.70;;;;;;4996876;28;20525;-40
2022/08/01 08:12:58;;;;;;;4.20;3.80;;;26.00;69.80;;;;;;4997769;28;20525;-40
2022/08/01 08:15:23;;;;;;;4.30;3.90;;;26.00;70.30;;;;;;4994542;28;20436;-39
2022/08/01 08:17:49;;;;;;;3.63;3.33;;;26.20;70.20;;;;;;4996892;28;20214;-42
2022/08/01 08:20:14;;;;;;;4.63;3.40;;;26.50;69.90;;;;;;4997155;28;20626;-40
2022/08/01 08:22:40;;;;;;;4.20;3.80;;;26.90;69.00;;;;;;5011309;28;20195;-40
2022/08/01 08:25:07;;;;;;;4.23;3.83;;;27.10;67.90;;;;;;4995891;28;20185;-42
2022/08/01 08:27:33;;;;;;;3.70;3.40;;;27.20;66.70;;;;;;4995269;28;20263;-41
2022/08/01 08:29:58;;;;;;;4.33;3.97;;;27.10;66.50;;;;;;4993035;28;20520;-40
2022/08/01 08:32:24;;;;;;;4.90;4.50;;;27.00;66.30;;;;;;4992938;28;20339;-39
2022/08/01 08:34:50;;;;;;;3.70;3.40;;;26.80;66.80;;;;;;4993633;28;20180;-41
2022/08/01 08:37:16;;;;;;;4.30;3.90;;;26.70;67.60;;;;;;4994295;28;20365;-42
2022/08/01 08:39:42;;;;;;;4.83;4.03;;;26.70;67.60;;;;;;4993402;28;20176;-41
2022/08/01 08:42:12;;;;;;;4.40;4.00;;;26.70;67.20;;;;;;4996584;28;20878;-40
2022/08/01 08:44:47;;;;;;;5.00;4.60;;;26.70;67.00;;;;;;4995893;28;20422;-40
2022/08/01 08:47:14;;;;;;;4.37;3.97;;;26.80;67.10;;;;;;4995419;28;20393;-39
2022/08/01 08:49:42;;;;;;;4.87;4.37;;;27.10;65.90;;;;;;4994509;28;20444;-40
2022/08/01 08:52:09;;;;;;;5.10;4.70;;;27.30;64.70;;;;;;4994871;28;20415;-38
2022/08/01 08:54:37;;;;;;;4.37;4.00;;;27.60;63.90;;;;;;5009714;28;20943;-39
2022/08/01 08:57:03;;;;;;;4.50;4.13;;;28.00;63.00;;;;;;4993938;28;20499;-40
2022/08/01 08:59:29;;;;;;;4.60;4.20;;;28.30;62.10;;;;;;5011050;28;20451;-40
2022/08/01 09:01:55;;;;;;;4.70;4.27;;;28.20;60.90;;;;;;4996186;28;20444;-40
2022/08/01 09:04:24;;;;;;;4.60;4.20;;;27.60;61.30;;;;;;4995216;28;20497;-40
2022/08/01 09:06:50;;;;;;;4.60;4.20;;;26.80;63.20;;;;;;4997094;28;20489;-40
2022/08/01 09:09:16;;;;;;;4.97;4.47;;;26.50;64.40;;;;;;4996443;28;20432;-40
2022/08/01 09:11:42;;;;;;;3.97;3.67;;;26.50;65.20;;;;;;4996261;28;20858;-41
2022/08/01 09:14:23;;;;;;;3.70;3.40;;;26.50;65.10;;;;;;4995885;28;20781;-40
2022/08/01 09:17:03;;;;;;;4.20;3.90;;;26.70;65.10;;;;;;4994480;28;20184;-40
2022/08/01 09:19:55;;;;;;;4.80;4.40;;;27.00;64.40;;;;;;4994884;28;20777;-43
2022/08/01 09:22:22;;;;;;;5.10;4.70;;;27.20;63.90;;;;;;4992468;28;20446;-41
2022/08/01 09:25:17;;;;;;;4.83;4.47;;;27.20;63.70;;;;;;4995106;28;20677;-43
2022/08/01 09:27:43;;;;;;;5.37;4.93;;;27.20;64.00;;;;;;4993898;28;20462;-40
2022/08/01 09:30:14;;;;;;;5.17;4.67;;;27.30;64.60;;;;;;4996285;28;20462;-40
2022/08/01 09:32:57;;;;;;;5.30;4.80;;;27.20;64.50;;;;;;4996448;28;20220;-41
2022/08/01 09:35:44;;;;;;;4.73;4.33;;;27.30;64.20;;;;;;4995973;28;20455;-41
2022/08/01 09:38:20;;;;;;;4.67;4.27;;;27.60;64.60;;;;;;4995692;28;20434;-40
2022/08/01 09:40:50;;;;;;;5.47;4.50;;;28.00;64.40;;;;;;4993519;28;20436;-40
2022/08/01 09:43:16;;;;;;;4.90;4.50;;;28.50;63.40;;;;;;4993206;28;20530;-42
2022/08/01 09:45:41;;;;;;;5.63;5.23;;;28.90;62.30;;;;;;5011196;28;20521;-41
2022/08/01 09:48:11;;;;;;;5.33;4.50;;;29.00;59.90;;;;;;5011216;28;20757;-41
2022/08/01 09:50:45;;;;;;;5.20;4.77;;;29.00;59.10;;;;;;4996022;28;20184;-39
2022/08/01 09:53:12;;;;;;;6.80;6.07;;;29.00;58.90;;;;;;5003412;28;20450;-42
2022/08/01 09:55:38;;;;;;;6.10;5.70;;;28.70;59.30;;;;;;5004638;28;20426;-41
2022/08/01 09:58:04;;;;;;;7.30;6.70;;;28.40;59.40;;;;;;4996714;28;20426;-40
2022/08/01 10:00:31;;;;;;;8.20;7.50;;;28.20;60.30;;;;;;4997363;28;20490;-41
2022/08/01 10:02:58;;;;;;;6.97;6.47;;;28.00;61.10;;;;;;5010279;28;20825;-41
2022/08/01 10:05:34;;;;;;;7.73;7.13;;;27.80;60.30;;;;;;5016353;28;20451;-40
2022/08/01 10:08:03;;;;;;;7.83;7.23;;;27.60;61.30;;;;;;5017118;28;20832;-39
2022/08/01 10:10:30;;;;;;;8.00;7.20;;;27.50;61.10;;;;;;5015774;28;20501;-42
2022/08/01 10:12:57;;;;;;;6.60;6.07;;;28.00;63.70;;;;;;5017019;28;20474;-41
2022/08/01 10:15:24;;;;;;;6.30;5.80;;;29.00;63.20;;;;;;5016704;28;20744;-41
2022/08/01 10:17:54;;;;;;;6.23;5.73;;;30.30;58.60;;;;;;5014669;28;20416;-39
2022/08/01 10:20:24;;;;;;;6.17;5.70;;;31.30;55.50;;;;;;5016595;28;20404;-38
2022/08/01 10:22:50;;;;;;;5.63;5.20;;;31.80;54.70;;;;;;5013658;28;20543;-43
2022/08/01 10:25:17;;;;;;;5.60;5.10;;;31.50;53.00;;;;;;5014430;28;20713;-42
2022/08/01 10:27:46;;;;;;;5.53;5.03;;;31.20;53.70;;;;;;5015495;28;20420;-39
2022/08/01 10:30:12;;;;;;;4.93;4.60;;;30.80;54.10;;;;;;4997406;28;20489;-39
2022/08/01 10:32:39;;;;;;;5.00;4.57;;;30.90;54.60;;;;;;5014378;28;20485;-43
2022/08/01 10:35:05;;;;;;;4.97;4.57;;;31.40;53.00;;;;;;5013354;28;20955;-42
2022/08/01 10:37:34;;;;;;;5.07;4.67;;;31.70;52.10;;;;;;5013755;28;20730;-42
2022/08/01 10:40:00;;;;;;;4.67;4.37;;;31.70;52.20;;;;;;5013526;28;20439;-39
2022/08/01 10:42:27;;;;;;;5.17;4.73;;;31.70;52.10;;;;;;5015128;28;20426;-39
2022/08/01 10:44:52;;;;;;;5.73;5.20;;;31.60;51.80;;;;;;5012126;28;20729;-40
2022/08/01 10:47:23;;;;;;;4.57;4.17;;;31.40;51.80;;;;;;5012809;28;20440;-39
2022/08/01 10:49:58;;;;;;;5.13;4.63;;;31.40;52.30;;;;;;5013667;28;20183;-40
2022/08/01 10:52:24;;;;;;;4.20;3.90;;;31.30;51.60;;;;;;5015132;28;20467;-40
2022/08/01 10:55:09;;;;;;;4.60;4.13;;;31.60;52.20;;;;;;4997471;28;20454;-42
2022/08/01 10:57:47;;;;;;;6.77;5.20;;;31.90;50.90;;;;;;5010227;28;20176;-41
2022/08/01 11:00:22;;;;;;;4.73;4.30;;;31.40;50.20;;;;;;5016578;28;20457;-41
2022/08/01 11:03:03;;;;;;;5.93;5.43;;;30.70;51.40;;;;;;5015217;28;20806;-42
2022/08/01 11:05:32;;;;;;;5.00;4.60;;;30.10;52.00;;;;;;5015666;28;20437;-39
2022/08/01 11:08:02;;;;;;;4.43;4.03;;;29.50;52.90;;;;;;5029640;28;20415;-42
2022/08/01 11:10:36;;;;;;;8.00;4.23;;;29.00;53.40;;;;;;5012914;28;20426;-42
2022/08/01 11:13:07;;;;;;;3.67;3.37;;;28.70;54.00;;;;;;4998278;28;20490;-40
2022/08/01 11:15:34;;;;;;;4.27;3.87;;;28.50;54.60;;;;;;5013634;28;20910;-41
2022/08/01 11:18:01;;;;;;;3.60;3.30;;;28.60;54.90;;;;;;5015969;28;20414;-40
2022/08/01 11:20:35;;;;;;;3.67;3.37;;;29.00;55.10;;;;;;5015364;28;20429;-41
2022/08/01 11:23:01;;;;;;;4.13;3.83;;;29.60;54.10;;;;;;5015972;28;20708;-40
2022/08/01 11:25:48;;;;;;;3.87;3.57;;;29.80;53.30;;;;;;5015815;28;20433;-42
2022/08/01 11:28:13;;;;;;;4.47;4.07;;;29.70;53.00;;;;;;5013858;28;20251;-40
2022/08/01 11:30:50;;;;;;;4.30;3.90;;;29.40;53.30;;;;;;5014666;28;20753;-41
2022/08/01 11:33:19;;;;;;;4.13;3.83;;;29.20;54.30;;;;;;5017687;28;20231;-42
2022/08/01 11:36:15;;;;;;;4.20;3.90;;;29.80;54.90;;;;;;5016817;28;20423;-40
2022/08/01 11:38:43;;;;;;;4.47;4.07;;;30.10;53.20;;;;;;5016499;28;20400;-42
2022/08/01 11:41:25;;;;;;;3.63;3.30;;;30.00;53.30;;;;;;5017654;28;21474;-41
2022/08/01 11:44:13;;;;;;;4.37;3.20;;;29.80;53.30;;;;;;5017145;28;20431;-41
2022/08/01 11:46:51;;;;;;;3.50;3.20;;;29.60;53.30;;;;;;5015893;28;20928;-40
2022/08/01 11:49:22;;;;;;;3.60;3.30;;;29.40;53.60;;;;;;5015963;28;20446;-40
2022/08/01 11:51:48;;;;;;;4.17;3.87;;;29.30;53.80;;;;;;5016701;28;20423;-45
2022/08/01 11:54:14;;;;;;;4.13;3.73;;;29.20;54.00;;;;;;5016423;28;20458;-41
2022/08/01 11:56:39;;;;;;;7.43;3.97;;;29.00;54.00;;;;;;5032845;28;20183;-40
2022/08/01 11:59:06;;;;;;;3.80;3.50;;;28.80;54.40;;;;;;5016833;28;20579;-38
2022/08/01 12:01:31;;;;;;;4.60;3.60;;;28.70;54.70;;;;;;5016491;28;20198;-43
2022/08/01 12:03:57;;;;;;;4.00;3.57;;;28.60;54.30;;;;;;5016630;28;20721;-41
2022/08/01 12:06:29;;;;;;;3.90;3.27;;;28.50;54.40;;;;;;5015774;28;20409;-40
2022/08/01 12:08:54;;;;;;;4.60;3.40;;;28.30;54.50;;;;;;5016064;28;20182;-42
2022/08/01 12:11:20;;;;;;;4.07;3.40;;;28.30;54.50;;;;;;5028974;28;20445;-41
2022/08/01 12:13:47;;;;;;;3.37;3.07;;;28.20;53.70;;;;;;5029767;28;20211;-40
2022/08/01 12:16:14;;;;;;;4.03;3.63;;;28.20;54.20;;;;;;5014312;28;20188;-42
2022/08/01 12:18:43;;;;;;;4.63;3.47;;;28.80;54.50;;;;;;5013089;28;20411;-40
2022/08/01 12:21:08;;;;;;;3.67;3.37;;;29.80;53.10;;;;;;5014006;28;20441;-40
2022/08/01 12:23:34;;;;;;;4.27;3.97;;;31.00;53.90;;;;;;5013808;28;20413;-40
2022/08/01 12:26:01;;;;;;;4.17;3.77;;;32.20;49.60;;;;;;5013919;28;20193;-43
2022/08/01 12:28:26;;;;;;;4.00;3.60;;;32.60;49.10;;;;;;5013015;28;20188;-40
2022/08/01 12:30:52;;;;;;;6.87;3.20;;;33.10;47.90;;;;;;5013699;28;20406;-40
2022/08/01 12:33:20;;;;;;;4.30;3.60;;;33.20;47.90;;;;;;5012251;28;20240;-42
2022/08/01 12:35:45;;;;;;;3.40;3.10;;;33.50;46.70;;;;;;5012844;28;20409;-40
2022/08/01 12:38:17;;;;;;;3.40;3.20;;;33.20;46.40;;;;;;5011160;28;20401;-40
2022/08/01 12:40:44;;;;;;;3.93;3.63;;;32.70;47.00;;;;;;5014054;28;20244;-41
2022/08/01 12:43:16;;;;;;;3.00;2.80;;;32.10;46.90;;;;;;5013234;28;20418;-41
2022/08/01 12:45:43;;;;;;;3.47;3.17;;;31.40;47.70;;;;;;5027354;28;20705;-39
2022/08/01 12:48:11;;;;;;;3.77;3.47;;;30.90;48.40;;;;;;5014057;28;20429;-40
2022/08/01 12:50:38;;;;;;;4.43;3.10;;;30.50;49.20;;;;;;5031488;28;20449;-41
2022/08/01 12:53:05;;;;;;;3.30;3.00;;;30.70;50.40;;;;;;5014262;28;20571;-40
2022/08/01 12:55:31;;;;;;;3.90;2.73;;;31.10;49.70;;;;;;5012934;28;20463;-42
2022/08/01 12:58:23;;;;;;;3.70;3.40;;;31.70;49.10;;;;;;5029188;28;20447;-40